Augusta, NJ (07822)

8:59 PM EDT on July 06, 2015 (GMT -0400)
Augusta, NJ | | Change Station
CLOSE
Current Station
Personal Weather Station
Location: Frankford, NJ
Elevation: 548 ft
Nearby Weather Stations

Elev 548 ft 41.15 °N, 74.68 °W | Updated 13 seconds ago

Clear
Clear
74.1 °F
Feels Like 72 °F
N
4.0
Wind Variable Wind from SSE
Gusts 4.9 mph

Today
High -- | Low -- °F
--% Chance of Precip.
Yesterday
High -- | Low -- °F
Precip. -- in
5:32 AM 8:34 PM
Waning Gibbous, 70% visible
Pressure 30.09 in
Visibility 10.0 miles
Clouds Clear
Heat Index 72 °F
Dew Point 72 °F
Humidity 93%
Rainfall 0.00 in
Snow Depth Not available.
UV 0.0 out of 12
Pollen 3.90 out of 12
Air Quality Not available.
Flu Activity Not available.
METAR KFWN 070053Z AUTO VRB03KT 10SM CLR 24/19 A3009 RMK AO2 SLP187 T02390189 $

More Conditions Fewer Conditions

Pressure 30.09 in
Visibility 10.0 miles
Clouds Clear
Heat Index 72 °F
Dew Point 72 °F
Humidity 93%
Rainfall 0.00 in
Snow Depth Not available.
UV 0.0 out of 12
Pollen 3.90 out of 12
Air Quality Not available.
Flu Activity Not available.
METAR KFWN 070053Z AUTO VRB03KT 10SM CLR 24/19 A3009 RMK AO2 SLP187 T02390189 $

More Conditions Fewer Conditions

Nowcast | as of 5:59 PM EDT on July 6, 2015

Scattered showers and isolated thunderstorms will continue to develop and spread across the area through this evening. Some showers and thunderstorms will produce a period of heavy rainfall that will cause ponding on roadways and poor drainage areas. Locally gusty winds around 25 to 30 mph are also possible.

×

10-Day Weather Forecast

×

Almanac

Astronomy

Jul. 06, 2015 Rise Set
Actual Time
Civil Twilight
Nautical Twilight
Astronomical Twilight
Moon
Length of Visible Light
Length of Day
Tomorrow will be .
, % of the Moon is Illuminated

Today's Extremes

State Highs State Lows

Community

WunderPhotos

Upload Photos

1,835,682 photos uploaded!

WunderBlogs® & News

Nearby

Air Quality

  Air Quality AQ Index Pollutant
Not available.

Snow Depth

Station Depth Elevation

Earthquake Activity

City Distance Mag. Time & Date
Minimum magnitude displayed is 2.5.

Coastal Water Temperatures

Place Temperature

Stations

Nearby Weather Stations

Station Location Temp. Windchill Dew Point Humidity Wind Precip. Elev Updated Type